createdAt,value
2022-08-28T00:00:19.439Z,80.28
2022-08-28T00:01:21.610Z,78.32
2022-08-28T00:02:24.135Z,86.45
2022-08-28T00:03:26.313Z,84.32
2022-08-28T00:04:28.620Z,85.10
2022-08-28T00:05:32.198Z,90.00
2022-08-28T00:06:34.449Z,98.82
2022-08-28T00:07:40.820Z,105.57
2022-08-28T00:08:44.523Z,93.55
2022-08-28T00:09:46.721Z,107.68
2022-08-28T00:10:48.837Z,102.32
2022-08-28T00:11:51.075Z,102.93
2022-08-28T00:12:55.948Z,100.70
2022-08-28T00:13:58.838Z,112.18
2022-08-28T00:15:01.020Z,115.50
2022-08-28T00:16:03.328Z,128.15
2022-08-28T00:17:05.574Z,115.53
2022-08-28T00:18:08.497Z,115.55
2022-08-28T00:19:11.266Z,124.40
2022-08-28T00:20:15.208Z,122.72
2022-08-28T00:21:17.369Z,123.07
2022-08-28T00:22:19.547Z,134.88
2022-08-28T00:23:22.095Z,122.63
2022-08-28T00:24:24.187Z,119.78
2022-08-28T00:25:28.167Z,124.75
2022-08-28T00:26:49.297Z,124.53
2022-08-28T00:27:57.628Z,145.13
2022-08-28T00:29:00.541Z,139.05
2022-08-28T00:30:02.654Z,128.80
2022-08-28T00:31:05.434Z,122.97
2022-08-28T00:32:10.161Z,132.82
2022-08-28T00:33:20.115Z,134.98
2022-08-28T00:34:32.051Z,140.23
2022-08-28T00:35:35.383Z,132.13
2022-08-28T00:36:38.840Z,136.23
2022-08-28T00:37:41.142Z,124.30
2022-08-28T00:38:46.115Z,135.45
2022-08-28T00:39:49.450Z,127.78
2022-08-28T00:40:54.131Z,130.90
2022-08-28T00:41:57.991Z,130.93
2022-08-28T00:43:05.702Z,134.20
2022-08-28T00:44:14.058Z,122.60
2022-08-28T00:45:18.556Z,125.00
2022-08-28T00:46:23.919Z,124.47
2022-08-28T00:47:26.856Z,119.30
2022-08-28T00:48:28.887Z,124.70
2022-08-28T00:49:36.182Z,121.82
2022-08-28T00:51:00.770Z,124.00
2022-08-28T00:52:08.480Z,121.60
2022-08-28T00:53:14.009Z,118.35
2022-08-28T00:54:16.211Z,116.80
2022-08-28T00:55:22.591Z,120.38
2022-08-28T00:56:25.691Z,116.95
2022-08-28T00:57:49.870Z,119.65
2022-08-28T00:58:53.636Z,118.13
2022-08-28T00:59:55.779Z,122.80
2022-08-28T01:00:57.867Z,115.30
2022-08-28T01:02:00.506Z,120.00
2022-08-28T01:03:05.906Z,124.55
2022-08-28T01:04:09.111Z,111.95
2022-08-28T01:05:11.920Z,119.90
2022-08-28T01:06:16.117Z,122.57
2022-08-28T01:07:18.300Z,116.88
2022-08-28T01:08:20.684Z,119.93
2022-08-28T01:09:29.510Z,118.55
2022-08-28T01:10:34.909Z,117.57
2022-08-28T01:11:37.064Z,115.72
2022-08-28T01:12:39.445Z,120.72
2022-08-28T01:13:46.805Z,124.28
2022-08-28T01:14:55.139Z,116.82
2022-08-28T01:15:58.448Z,116.90
2022-08-28T01:17:00.906Z,117.50
2022-08-28T01:18:10.441Z,113.65
2022-08-28T01:19:21.605Z,117.22
2022-08-28T01:20:29.060Z,120.03
2022-08-28T01:21:44.793Z,108.57
2022-08-28T01:23:24.703Z,115.03
2022-08-28T01:24:27.734Z,111.07
2022-08-28T01:25:34.002Z,121.50
2022-08-28T01:26:38.900Z,118.03
2022-08-28T01:27:44.311Z,128.18
2022-08-28T01:28:47.107Z,116.55
2022-08-28T01:29:50.363Z,121.35
2022-08-28T01:30:52.398Z,112.90
2022-08-28T01:31:54.889Z,118.07
2022-08-28T01:32:57.190Z,118.75
2022-08-28T01:33:59.523Z,123.20
2022-08-28T01:35:03.003Z,117.97
2022-08-28T01:36:05.573Z,117.28
2022-08-28T01:37:07.641Z,121.22
2022-08-28T01:38:09.690Z,110.93
2022-08-28T01:39:18.048Z,111.47
2022-08-28T01:40:41.502Z,109.40
2022-08-28T01:41:47.073Z,116.13
2022-08-28T01:42:49.760Z,114.35
2022-08-28T01:43:53.979Z,112.32
2022-08-28T01:44:56.556Z,109.70
2022-08-28T01:46:02.359Z,109.20
2022-08-28T01:47:04.748Z,109.53
2022-08-28T01:48:07.890Z,116.30
2022-08-28T01:49:12.147Z,109.25
2022-08-28T01:50:19.017Z,108.05
2022-08-28T01:51:24.470Z,110.63
2022-08-28T01:52:26.775Z,112.65
2022-08-28T01:53:32.573Z,106.63
2022-08-28T01:54:35.283Z,116.15
2022-08-28T01:55:38.214Z,103.93
2022-08-28T01:56:44.580Z,106.45
2022-08-28T01:57:53.976Z,103.10
2022-08-28T01:58:56.057Z,107.35
2022-08-28T01:59:58.281Z,108.90
2022-08-28T02:01:00.530Z,104.78
2022-08-28T02:02:02.675Z,112.95
2022-08-28T02:03:05.431Z,99.38
2022-08-28T02:04:07.592Z,112.53
2022-08-28T02:05:10.712Z,103.63
2022-08-28T02:06:13.709Z,107.50
2022-08-28T02:07:17.195Z,101.50
2022-08-28T02:08:20.494Z,104.80
2022-08-28T02:09:22.523Z,101.03
2022-08-28T02:10:26.971Z,100.60
2022-08-28T02:11:30.693Z,97.03
2022-08-28T02:12:32.979Z,102.47
2022-08-28T02:13:38.446Z,97.88
2022-08-28T02:14:40.493Z,95.22
2022-08-28T02:15:43.343Z,99.82
2022-08-28T02:16:45.716Z,106.93
2022-08-28T02:17:47.984Z,101.13
2022-08-28T02:18:50.193Z,96.03
2022-08-28T02:19:52.638Z,96.32
2022-08-28T02:20:54.731Z,100.15
2022-08-28T02:21:57.036Z,101.45
2022-08-28T02:22:59.697Z,92.40
2022-08-28T02:24:02.138Z,93.38
2022-08-28T02:25:05.490Z,98.40
2022-08-28T02:26:08.771Z,94.65
2022-08-28T02:27:11.138Z,94.50
2022-08-28T02:28:13.726Z,93.47
2022-08-28T02:29:16.108Z,93.30
2022-08-28T02:30:19.997Z,95.45
2022-08-28T02:31:22.389Z,94.00
2022-08-28T02:32:25.923Z,95.18
2022-08-28T02:33:28.121Z,100.07
2022-08-28T02:34:30.228Z,98.05
2022-08-28T02:35:32.595Z,94.93
2022-08-28T02:36:34.632Z,90.85
2022-08-28T02:37:36.917Z,90.72
2022-08-28T02:38:39.371Z,101.15
2022-08-28T02:39:41.529Z,94.13
2022-08-28T02:40:44.405Z,91.57
2022-08-28T02:41:46.564Z,93.53
2022-08-28T02:42:48.687Z,93.50
2022-08-28T02:43:50.748Z,96.57
2022-08-28T02:44:53.321Z,89.97
2022-08-28T02:45:55.612Z,94.65
2022-08-28T02:46:58.216Z,92.55
2022-08-28T02:48:02.111Z,99.55
2022-08-28T02:49:04.263Z,94.38
2022-08-28T02:50:09.383Z,93.90
2022-08-28T02:51:14.604Z,94.28
2022-08-28T02:52:16.837Z,96.90
2022-08-28T02:53:19.037Z,95.05
2022-08-28T02:54:21.978Z,94.13
2022-08-28T02:55:25.657Z,94.82
2022-08-28T02:56:29.043Z,97.18
2022-08-28T02:57:31.183Z,97.40
2022-08-28T02:58:35.575Z,90.38
2022-08-28T02:59:38.584Z,94.38
2022-08-28T03:00:41.575Z,96.05
2022-08-28T03:01:43.623Z,97.22
2022-08-28T03:02:50.735Z,93.85
2022-08-28T03:03:52.863Z,95.00
2022-08-28T03:04:59.312Z,96.47
2022-08-28T03:06:01.581Z,95.68
2022-08-28T03:07:04.809Z,93.90
2022-08-28T03:08:09.452Z,95.70
2022-08-28T03:09:11.582Z,91.43
2022-08-28T03:10:13.886Z,93.57
2022-08-28T03:11:16.087Z,95.72
2022-08-28T03:12:18.256Z,91.38
2022-08-28T03:13:26.503Z,93.05
2022-08-28T03:14:29.410Z,94.90
2022-08-28T03:15:31.760Z,95.03
2022-08-28T03:16:34.574Z,87.20
2022-08-28T03:17:37.494Z,92.85
2022-08-28T03:18:39.794Z,95.18
2022-08-28T03:19:42.114Z,87.80
2022-08-28T03:20:45.896Z,88.95
2022-08-28T03:21:48.378Z,89.63
2022-08-28T03:23:13.003Z,87.10
2022-08-28T03:24:15.737Z,89.72
2022-08-28T03:25:18.740Z,91.50
2022-08-28T03:26:21.324Z,91.90
2022-08-28T03:27:23.344Z,88.45
2022-08-28T03:28:27.788Z,88.18
2022-08-28T03:29:29.895Z,89.32
2022-08-28T03:30:32.051Z,89.05
2022-08-28T03:31:36.104Z,88.20
2022-08-28T03:32:40.472Z,85.00
2022-08-28T03:33:42.973Z,91.30
2022-08-28T03:34:45.252Z,84.70
2022-08-28T03:35:47.485Z,85.93
2022-08-28T03:36:50.048Z,84.45
2022-08-28T03:37:52.018Z,84.32
2022-08-28T03:38:56.335Z,90.82
2022-08-28T03:39:58.373Z,84.60
2022-08-28T03:41:02.709Z,89.03
2022-08-28T03:42:06.225Z,88.97
2022-08-28T03:43:14.711Z,92.20
2022-08-28T03:44:16.918Z,86.88
2022-08-28T03:45:19.132Z,83.40
2022-08-28T03:46:23.963Z,85.05
2022-08-28T03:47:29.688Z,82.85
2022-08-28T03:48:34.871Z,91.80
2022-08-28T03:49:36.995Z,88.05
2022-08-28T03:50:40.625Z,78.20
2022-08-28T03:51:44.319Z,82.53
2022-08-28T03:52:46.438Z,85.47
2022-08-28T03:53:48.587Z,89.50
2022-08-28T03:54:51.713Z,88.05
2022-08-28T03:55:54.603Z,85.28
2022-08-28T03:56:56.667Z,81.97
2022-08-28T03:57:58.710Z,91.93
2022-08-28T03:59:04.443Z,84.15
2022-08-28T04:00:10.679Z,86.53
2022-08-28T04:01:16.162Z,83.60
2022-08-28T04:02:21.725Z,86.43
2022-08-28T04:03:23.932Z,82.65
2022-08-28T04:04:25.994Z,79.05
2022-08-28T04:05:28.963Z,83.70
2022-08-28T04:06:31.387Z,87.35
2022-08-28T04:07:38.143Z,82.95
2022-08-28T04:08:44.539Z,80.95
2022-08-28T04:09:47.359Z,85.47
2022-08-28T04:10:50.494Z,80.55
2022-08-28T04:11:55.420Z,88.18
2022-08-28T04:12:57.637Z,86.32
2022-08-28T04:14:00.032Z,81.50
2022-08-28T04:15:03.164Z,82.85
2022-08-28T04:16:11.037Z,85.05
2022-08-28T04:17:13.440Z,86.43
2022-08-28T04:18:16.048Z,86.45
2022-08-28T04:19:18.291Z,83.03
2022-08-28T04:20:21.370Z,87.70
2022-08-28T04:21:26.227Z,83.45
2022-08-28T04:22:30.757Z,83.05
2022-08-28T04:23:40.257Z,86.35
2022-08-28T04:24:42.352Z,85.80
2022-08-28T04:25:44.458Z,83.22
2022-08-28T04:26:47.053Z,88.47
2022-08-28T04:27:51.756Z,86.45
2022-08-28T04:28:55.081Z,88.18
2022-08-28T04:29:58.436Z,83.47
2022-08-28T04:31:01.167Z,84.63
2022-08-28T04:32:04.054Z,91.20
2022-08-28T04:33:06.543Z,86.80
2022-08-28T04:34:29.639Z,88.22
2022-08-28T04:35:32.655Z,88.18
2022-08-28T04:36:35.944Z,88.00
2022-08-28T04:37:39.322Z,86.63
2022-08-28T04:38:44.042Z,86.70
2022-08-28T04:39:46.485Z,90.50
2022-08-28T04:40:49.542Z,86.57
2022-08-28T04:41:51.826Z,91.20
2022-08-28T04:42:54.063Z,87.13
2022-08-28T04:43:57.601Z,86.32
2022-08-28T04:45:00.511Z,92.68
2022-08-28T04:46:08.609Z,85.55
2022-08-28T04:47:11.432Z,96.60
2022-08-28T04:48:14.724Z,86.75
2022-08-28T04:49:17.565Z,91.57
2022-08-28T04:50:20.996Z,92.78
2022-08-28T04:51:23.264Z,86.70
2022-08-28T04:52:27.853Z,86.15
2022-08-28T04:53:29.895Z,87.53
2022-08-28T04:54:35.233Z,90.28
2022-08-28T04:55:54.760Z,87.75
2022-08-28T04:56:57.284Z,90.15
2022-08-28T04:57:59.590Z,89.45
2022-08-28T04:59:01.867Z,86.07
2022-08-28T05:00:07.336Z,88.82
2022-08-28T05:01:16.400Z,85.15
2022-08-28T05:02:18.526Z,94.63
2022-08-28T05:03:21.397Z,87.22
2022-08-28T05:04:24.003Z,85.55
2022-08-28T05:05:28.396Z,83.75
2022-08-28T05:06:33.335Z,87.43
2022-08-28T05:07:35.392Z,88.38
2022-08-28T05:08:37.485Z,88.18
2022-08-28T05:09:39.731Z,88.30
2022-08-28T05:10:43.118Z,86.60
2022-08-28T05:11:48.184Z,90.40
2022-08-28T05:12:50.783Z,86.45
2022-08-28T05:13:54.510Z,88.30
2022-08-28T05:14:56.698Z,89.90
2022-08-28T05:15:58.820Z,82.90
2022-08-28T05:17:01.171Z,89.03
2022-08-28T05:18:03.914Z,90.53
2022-08-28T05:19:07.065Z,91.28
2022-08-28T05:20:13.824Z,91.07
2022-08-28T05:21:22.957Z,91.88
2022-08-28T05:22:27.373Z,88.00
2022-08-28T05:23:30.828Z,88.90
2022-08-28T05:24:34.919Z,89.78
2022-08-28T05:25:44.074Z,90.38
2022-08-28T05:26:48.343Z,90.25
2022-08-28T05:27:55.223Z,90.18
2022-08-28T05:28:59.986Z,94.90
2022-08-28T05:30:03.222Z,91.65
2022-08-28T05:31:14.223Z,91.88
2022-08-28T05:32:19.270Z,95.95
2022-08-28T05:33:22.222Z,89.80
2022-08-28T05:34:24.313Z,90.25
2022-08-28T05:35:27.538Z,89.65
2022-08-28T05:36:33.344Z,85.97
2022-08-28T05:37:35.746Z,94.57
2022-08-28T05:38:39.953Z,88.05
2022-08-28T05:39:42.202Z,87.50
2022-08-28T05:40:47.428Z,89.95
2022-08-28T05:41:52.948Z,90.93
2022-08-28T05:42:56.473Z,89.20
2022-08-28T05:44:04.984Z,91.45
2022-08-28T05:45:09.700Z,85.68
2022-08-28T05:46:12.230Z,93.05
2022-08-28T05:47:15.492Z,95.55
2022-08-28T05:48:18.668Z,92.85
2022-08-28T05:49:20.787Z,102.80
2022-08-28T05:50:23.557Z,88.15
2022-08-28T05:51:26.891Z,89.43
2022-08-28T05:52:30.784Z,87.50
2022-08-28T05:53:39.075Z,88.22
2022-08-28T05:54:41.390Z,92.93
2022-08-28T05:55:44.684Z,85.97
2022-08-28T05:56:51.353Z,90.68
2022-08-28T05:57:53.478Z,85.70
2022-08-28T05:58:56.378Z,85.28
2022-08-28T05:59:58.607Z,85.38
2022-08-28T06:01:16.839Z,88.68
2022-08-28T06:02:19.891Z,82.15
2022-08-28T06:03:25.214Z,90.70
2022-08-28T06:04:28.557Z,79.53
2022-08-28T06:05:30.663Z,80.72
2022-08-28T06:06:38.524Z,88.10
2022-08-28T06:07:42.250Z,80.07
2022-08-28T06:08:58.048Z,83.75
2022-08-28T06:10:01.247Z,82.57
2022-08-28T06:11:05.517Z,82.00
2022-08-28T06:12:10.009Z,77.60
2022-08-28T06:13:14.330Z,82.25
2022-08-28T06:14:19.739Z,84.20
2022-08-28T06:15:22.390Z,82.30
2022-08-28T06:16:24.893Z,83.72
2022-08-28T06:17:27.082Z,81.13
2022-08-28T06:18:29.558Z,83.35
2022-08-28T06:19:37.212Z,82.57
2022-08-28T06:20:45.151Z,80.18
2022-08-28T06:21:48.693Z,83.22
2022-08-28T06:22:51.874Z,78.10
2022-08-28T06:23:54.604Z,77.35
2022-08-28T06:24:56.865Z,80.88
2022-08-28T06:25:59.732Z,83.40
2022-08-28T06:27:01.833Z,78.70
2022-08-28T06:28:04.119Z,77.65
2022-08-28T06:29:09.377Z,77.65
2022-08-28T06:30:12.772Z,80.95
2022-08-28T06:31:23.191Z,77.68
2022-08-28T06:32:27.638Z,78.50
2022-08-28T06:33:30.663Z,78.07
2022-08-28T06:34:32.856Z,77.15
2022-08-28T06:35:35.018Z,78.05
2022-08-28T06:36:41.993Z,75.53
2022-08-28T06:37:45.110Z,73.13
2022-08-28T06:38:47.285Z,77.30
2022-08-28T06:39:49.363Z,85.05
2022-08-28T06:40:55.345Z,86.85
2022-08-28T06:42:03.064Z,83.70
2022-08-28T06:43:05.503Z,84.95
2022-08-28T06:44:12.701Z,73.35
2022-08-28T06:45:15.265Z,82.57
2022-08-28T06:46:19.269Z,76.75
2022-08-28T06:47:23.785Z,84.72
2022-08-28T06:48:30.651Z,84.53
2022-08-28T06:49:32.802Z,78.38
2022-08-28T06:50:39.804Z,81.15
2022-08-28T06:52:11.646Z,79.75
2022-08-28T06:54:41.725Z,78.68
2022-08-28T06:57:13.831Z,78.18
2022-08-28T06:58:17.088Z,76.95
2022-08-28T06:59:20.205Z,75.07
2022-08-28T07:00:22.655Z,72.00
2022-08-28T07:01:31.458Z,71.03
2022-08-28T07:02:34.194Z,77.60
2022-08-28T07:03:37.425Z,78.32
2022-08-28T07:04:54.433Z,70.90
2022-08-28T07:05:59.146Z,71.43
2022-08-28T07:07:01.674Z,74.22
2022-08-28T07:08:06.782Z,77.40
2022-08-28T07:09:14.520Z,73.32
2022-08-28T07:10:17.177Z,74.32
2022-08-28T07:11:27.760Z,75.88
2022-08-28T07:12:32.873Z,90.82
2022-08-28T07:13:42.416Z,77.65
2022-08-28T07:14:44.861Z,78.07
2022-08-28T07:15:47.169Z,76.65
2022-08-28T07:16:51.937Z,72.30
2022-08-28T07:17:54.152Z,72.68
2022-08-28T07:18:59.536Z,71.80
2022-08-28T07:20:03.740Z,68.43
2022-08-28T07:21:11.594Z,71.22
2022-08-28T07:22:14.871Z,66.03
2022-08-28T07:23:17.134Z,67.78
2022-08-28T07:24:19.564Z,67.68
2022-08-28T07:25:22.141Z,69.65
2022-08-28T07:26:26.333Z,71.32
2022-08-28T07:27:29.218Z,67.57
2022-08-28T07:28:31.707Z,71.13
2022-08-28T07:29:33.825Z,66.93
2022-08-28T07:30:36.182Z,67.53
2022-08-28T07:31:44.159Z,65.60
2022-08-28T07:32:49.443Z,68.10
2022-08-28T07:33:54.223Z,71.18
2022-08-28T07:34:57.324Z,65.20
2022-08-28T07:36:01.680Z,70.05
2022-08-28T07:37:04.704Z,71.10
2022-08-28T07:38:07.247Z,74.22
2022-08-28T07:39:11.261Z,70.15
2022-08-28T07:40:13.553Z,67.25
2022-08-28T07:41:28.390Z,67.10
2022-08-28T07:42:49.031Z,66.25
2022-08-28T07:44:10.795Z,66.45
2022-08-28T07:45:12.855Z,74.30
2022-08-28T07:46:15.262Z,64.72
2022-08-28T07:47:18.754Z,71.57
2022-08-28T07:48:21.355Z,68.50
2022-08-28T07:49:25.115Z,66.15
2022-08-28T07:50:27.407Z,65.35
2022-08-28T07:51:29.727Z,72.93
2022-08-28T07:52:31.940Z,69.97
2022-08-28T07:53:36.477Z,73.57
2022-08-28T07:54:40.825Z,70.72
2022-08-28T07:55:43.525Z,77.22
2022-08-28T07:56:48.134Z,71.95
2022-08-28T07:57:50.476Z,73.07
2022-08-28T07:59:04.928Z,69.15
2022-08-28T08:00:08.424Z,84.63
2022-08-28T08:01:13.492Z,74.55
2022-08-28T08:02:16.899Z,71.15
2022-08-28T08:03:21.395Z,79.75
2022-08-28T08:04:27.309Z,68.65
2022-08-28T08:05:29.691Z,68.18
2022-08-28T08:06:34.116Z,68.90
2022-08-28T08:07:41.899Z,67.80
2022-08-28T08:09:48.924Z,73.82
2022-08-28T08:11:16.987Z,74.43
2022-08-28T08:12:21.121Z,69.10
2022-08-28T08:13:23.516Z,70.28
2022-08-28T08:14:25.865Z,68.93
2022-08-28T08:15:31.215Z,66.88
2022-08-28T08:16:36.546Z,64.45
2022-08-28T08:17:39.499Z,69.35
2022-08-28T08:18:42.616Z,65.18
2022-08-28T08:19:44.690Z,69.43
2022-08-28T08:20:46.858Z,66.57
2022-08-28T08:21:55.096Z,63.03
2022-08-28T08:22:57.555Z,68.05
2022-08-28T08:24:00.243Z,64.93
2022-08-28T08:25:05.135Z,65.53
2022-08-28T08:26:13.200Z,63.33
2022-08-28T08:27:15.349Z,62.53
2022-08-28T08:28:17.788Z,62.53
2022-08-28T08:29:20.841Z,51.55
2022-08-28T08:30:25.073Z,60.13
2022-08-28T08:33:10.324Z,53.63
2022-08-28T08:36:07.028Z,55.97
2022-08-28T08:37:09.919Z,55.30
2022-08-28T08:38:12.771Z,52.88
2022-08-28T08:39:17.243Z,62.42
2022-08-28T08:40:20.932Z,55.70
2022-08-28T08:41:26.810Z,61.67
2022-08-28T08:42:33.470Z,56.60
2022-08-28T08:43:54.579Z,53.63
2022-08-28T08:45:06.462Z,53.40
2022-08-28T08:46:10.126Z,56.88
2022-08-28T08:47:22.252Z,55.63
2022-08-28T08:48:34.237Z,56.97
2022-08-28T08:49:43.609Z,46.92
2022-08-28T08:50:45.963Z,46.58
2022-08-28T08:51:55.444Z,52.28
2022-08-28T08:53:45.269Z,50.25
2022-08-28T08:55:06.384Z,45.97
2022-08-28T08:56:15.917Z,48.72
2022-08-28T08:57:19.014Z,46.85
2022-08-28T08:58:36.464Z,51.85
2022-08-28T08:59:40.352Z,51.88
2022-08-28T09:01:01.192Z,50.83
2022-08-28T09:02:12.629Z,48.75
2022-08-28T09:03:22.580Z,48.17
2022-08-28T09:04:34.676Z,38.38
2022-08-28T09:05:58.735Z,46.45
2022-08-28T09:07:20.852Z,50.95
2022-08-28T09:08:32.692Z,50.17
2022-08-28T09:09:38.534Z,49.40
2022-08-28T09:10:48.695Z,51.42
2022-08-28T09:11:59.061Z,51.30
2022-08-28T09:13:13.565Z,52.53
2022-08-28T09:14:44.280Z,50.78
2022-08-28T09:15:50.728Z,50.38
2022-08-28T09:16:56.954Z,50.60
2022-08-28T09:18:08.238Z,46.78
2022-08-28T09:19:15.509Z,53.70
2022-08-28T09:20:25.888Z,52.63
2022-08-28T09:21:41.535Z,52.15
2022-08-28T09:24:01.208Z,48.13
2022-08-28T09:25:29.821Z,52.38
2022-08-28T09:26:31.957Z,51.30
2022-08-28T09:27:39.430Z,56.75
2022-08-28T09:28:42.593Z,53.15
2022-08-28T09:29:57.867Z,46.30
2022-08-28T09:31:15.868Z,49.55
2022-08-28T09:32:31.117Z,48.65
2022-08-28T09:33:45.010Z,46.70
2022-08-28T09:35:08.545Z,39.17
2022-08-28T09:36:38.002Z,38.33
2022-08-28T09:37:41.513Z,36.22
2022-08-28T09:38:43.592Z,37.15
2022-08-28T09:39:48.893Z,34.13
2022-08-28T09:41:26.926Z,33.42
2022-08-28T09:42:48.129Z,39.58
2022-08-28T09:43:50.308Z,40.00
2022-08-28T09:44:56.804Z,35.33
2022-08-28T09:46:03.346Z,39.05
2022-08-28T09:47:05.538Z,39.80
2022-08-28T09:48:21.692Z,33.72
2022-08-28T09:49:30.698Z,29.45
2022-08-28T09:50:42.897Z,37.22
2022-08-28T09:51:48.122Z,28.13
2022-08-28T09:52:52.400Z,29.90
2022-08-28T09:53:59.905Z,26.25
2022-08-28T09:55:02.741Z,29.33
2022-08-28T09:56:34.499Z,31.55
2022-08-28T09:57:36.994Z,32.72
2022-08-28T09:59:07.067Z,25.33
2022-08-28T10:00:10.728Z,26.15
2022-08-28T10:01:27.373Z,29.33
2022-08-28T10:02:43.853Z,27.55
2022-08-28T10:04:04.508Z,24.27
2022-08-28T10:05:16.711Z,26.23
2022-08-28T10:06:32.118Z,25.27
2022-08-28T10:07:48.872Z,27.63
2022-08-28T10:09:08.994Z,27.15
2022-08-28T10:10:39.620Z,25.17
2022-08-28T10:11:51.077Z,27.55
2022-08-28T10:13:16.988Z,28.95
2022-08-28T10:14:39.231Z,25.27
2022-08-28T10:16:03.787Z,25.85
2022-08-28T10:17:06.609Z,22.88
2022-08-28T10:18:43.780Z,22.65
2022-08-28T10:20:17.674Z,31.17
2022-08-28T10:21:38.296Z,27.55
2022-08-28T10:22:57.262Z,22.65
2022-08-28T10:24:15.172Z,21.00
2022-08-28T10:25:45.509Z,17.95
2022-08-28T10:27:08.523Z,18.90
2022-08-28T10:28:40.956Z,23.42
2022-08-28T10:29:48.396Z,22.95
2022-08-28T10:31:11.334Z,23.42
2022-08-28T10:32:20.974Z,25.67
2022-08-28T10:33:44.931Z,25.43
2022-08-28T10:35:18.523Z,26.02
2022-08-28T10:36:33.233Z,17.90
2022-08-28T10:37:51.699Z,22.38
2022-08-28T10:39:30.594Z,18.95
2022-08-28T10:40:44.766Z,32.28
2022-08-28T10:42:07.438Z,24.13
2022-08-28T10:43:30.544Z,22.38
2022-08-28T10:44:52.643Z,26.95
2022-08-28T10:45:55.405Z,20.45
2022-08-28T10:46:59.604Z,21.25
2022-08-28T10:48:10.686Z,21.70
2022-08-28T10:49:34.912Z,25.75
2022-08-28T10:50:47.354Z,23.17
2022-08-28T10:51:57.340Z,25.52
2022-08-28T10:53:16.943Z,26.63
2022-08-28T10:54:35.099Z,26.35
2022-08-28T10:55:58.557Z,23.63
2022-08-28T10:57:39.407Z,25.63
2022-08-28T10:58:42.477Z,27.35
2022-08-28T10:59:49.171Z,23.17
2022-08-28T11:01:01.525Z,25.30
2022-08-28T11:02:07.216Z,21.42
2022-08-28T11:03:32.954Z,27.35
2022-08-28T11:04:35.983Z,26.67
2022-08-28T11:05:53.872Z,22.90
2022-08-28T11:07:05.841Z,27.42
2022-08-28T11:08:23.071Z,27.67
2022-08-28T11:09:46.995Z,25.15
2022-08-28T11:10:53.873Z,25.80
2022-08-28T11:12:10.476Z,24.40
2022-08-28T11:13:13.554Z,27.20
2022-08-28T11:14:35.710Z,22.35
2022-08-28T11:15:53.660Z,25.55
2022-08-28T11:17:01.846Z,22.42
2022-08-28T11:18:16.026Z,22.08
2022-08-28T11:19:29.796Z,23.73
2022-08-28T11:20:32.660Z,21.80
2022-08-28T11:21:48.011Z,28.48
2022-08-28T11:22:53.480Z,24.60
2022-08-28T11:24:08.420Z,19.35
2022-08-28T11:25:17.388Z,19.35
2022-08-28T11:26:34.155Z,23.13
2022-08-28T11:27:38.260Z,21.50
2022-08-28T11:28:48.127Z,21.92
2022-08-28T11:30:08.166Z,19.92
2022-08-28T11:31:16.316Z,26.48
2022-08-28T11:33:53.363Z,24.02
2022-08-28T11:35:03.457Z,28.65
2022-08-28T11:36:33.054Z,29.73
2022-08-28T11:37:44.246Z,23.48
2022-08-28T11:38:53.432Z,26.85
2022-08-28T11:40:39.335Z,24.33
2022-08-28T11:42:10.707Z,25.83
2022-08-28T11:43:16.182Z,26.08
2022-08-28T11:44:28.548Z,27.48
2022-08-28T11:45:46.504Z,26.05
2022-08-28T11:46:51.950Z,27.25
2022-08-28T11:47:56.844Z,27.77
2022-08-28T11:49:02.457Z,27.55
2022-08-28T11:50:22.127Z,29.13
2022-08-28T11:51:47.162Z,26.45
2022-08-28T11:53:08.037Z,37.05
2022-08-28T11:54:38.067Z,31.05
2022-08-28T11:56:01.012Z,31.55
2022-08-28T11:57:15.262Z,25.48
2022-08-28T11:58:39.793Z,25.70
2022-08-28T12:00:04.513Z,26.85
2022-08-28T12:01:13.071Z,30.13
2022-08-28T12:02:40.010Z,25.13
2022-08-28T12:04:06.111Z,27.05
2022-08-28T12:05:35.335Z,25.23
2022-08-28T12:06:49.400Z,33.85
2022-08-28T12:07:52.054Z,28.08
2022-08-28T12:08:58.902Z,27.38
2022-08-28T12:10:05.104Z,30.90
2022-08-28T12:11:07.620Z,28.40
2022-08-28T12:12:22.822Z,31.27
2022-08-28T12:13:49.740Z,30.40
2022-08-28T12:14:59.276Z,28.50
2022-08-28T12:16:08.255Z,33.47
2022-08-28T12:17:17.191Z,25.45
2022-08-28T12:18:42.906Z,31.33
2022-08-28T12:19:55.267Z,27.98
2022-08-28T12:21:02.607Z,24.30
2022-08-28T12:22:07.010Z,32.80
2022-08-28T12:23:35.523Z,32.05
2022-08-28T12:24:49.380Z,28.63
2022-08-28T12:26:16.271Z,30.17
2022-08-28T12:27:18.948Z,32.00
2022-08-28T12:29:05.687Z,26.98
2022-08-28T12:30:08.402Z,25.80
2022-08-28T12:32:13.032Z,23.73
2022-08-28T12:33:41.375Z,18.63
2022-08-28T12:34:47.985Z,22.20
2022-08-28T12:35:50.531Z,24.38
2022-08-28T12:36:58.799Z,21.35
2022-08-28T12:38:06.748Z,21.30
2022-08-28T12:39:18.411Z,19.43
2022-08-28T12:40:20.605Z,21.85
2022-08-28T12:41:26.892Z,23.42
2022-08-28T12:42:38.712Z,28.30
2022-08-28T12:43:46.803Z,20.75
2022-08-28T12:44:49.530Z,21.10
2022-08-28T12:46:19.535Z,19.83
2022-08-28T12:47:23.876Z,22.33
2022-08-28T12:48:33.696Z,20.48
2022-08-28T12:49:38.137Z,17.75
2022-08-28T12:50:41.403Z,17.55
2022-08-28T12:51:44.891Z,21.67
2022-08-28T12:52:55.545Z,23.25
2022-08-28T12:54:00.961Z,22.23
2022-08-28T12:55:05.007Z,20.25
2022-08-28T12:56:10.255Z,20.92
2022-08-28T12:57:23.909Z,17.73
2022-08-28T12:58:36.216Z,15.70
2022-08-28T12:59:47.418Z,20.75
2022-08-28T13:01:03.551Z,16.50
2022-08-28T13:02:19.410Z,14.88
2022-08-28T13:03:22.056Z,18.95
2022-08-28T13:04:39.963Z,16.60
2022-08-28T13:05:42.624Z,17.33
2022-08-28T13:06:45.259Z,21.88
2022-08-28T13:07:51.971Z,18.70
2022-08-28T13:09:00.771Z,17.70
2022-08-28T13:11:23.228Z,20.55
2022-08-28T13:12:54.276Z,19.42
2022-08-28T13:14:01.722Z,17.25
2022-08-28T13:15:05.928Z,18.38
2022-08-28T13:16:13.825Z,19.02
2022-08-28T13:17:44.966Z,16.40
2022-08-28T13:19:05.171Z,18.27
2022-08-28T13:20:08.383Z,20.10
2022-08-28T13:21:15.013Z,18.17
2022-08-28T13:22:35.921Z,22.42
2022-08-28T13:23:38.273Z,19.02
2022-08-28T13:24:46.694Z,17.70
2022-08-28T13:25:48.847Z,20.17
2022-08-28T13:27:03.119Z,18.42
2022-08-28T13:28:14.025Z,17.35
2022-08-28T13:29:22.141Z,22.10
2022-08-28T13:30:35.692Z,17.65
2022-08-28T13:31:42.884Z,19.27
2022-08-28T13:33:02.395Z,15.45
2022-08-28T13:34:13.436Z,19.98
2022-08-28T13:35:18.829Z,22.10
2022-08-28T13:36:25.088Z,16.73
2022-08-28T13:37:53.507Z,17.10
2022-08-28T13:38:55.898Z,20.48
2022-08-28T13:39:58.195Z,23.20
2022-08-28T13:41:04.753Z,15.20
2022-08-28T13:42:16.600Z,26.38
2022-08-28T13:43:19.971Z,27.83
2022-08-28T13:44:30.055Z,22.15
2022-08-28T13:45:42.542Z,21.75
2022-08-28T13:46:45.717Z,22.73
2022-08-28T13:47:47.839Z,21.92
2022-08-28T13:48:50.286Z,20.83
2022-08-28T13:49:52.428Z,19.23
2022-08-28T13:51:00.214Z,17.77
2022-08-28T13:52:06.370Z,27.75
2022-08-28T13:53:09.768Z,21.60
2022-08-28T13:54:13.190Z,20.25
2022-08-28T13:55:16.543Z,27.98
2022-08-28T13:56:19.096Z,21.30
2022-08-28T13:57:26.004Z,19.55
2022-08-28T13:58:30.514Z,26.42
2022-08-28T13:59:33.089Z,20.27
2022-08-28T14:00:43.098Z,22.35
2022-08-28T14:02:05.251Z,23.17
2022-08-28T14:03:26.612Z,23.55
2022-08-28T14:04:29.104Z,18.77
2022-08-28T14:05:34.819Z,24.27
2022-08-28T14:06:37.061Z,20.40
2022-08-28T14:07:39.835Z,21.40
2022-08-28T14:08:47.652Z,21.17
2022-08-28T14:09:54.058Z,24.50
2022-08-28T14:10:58.946Z,24.70
2022-08-28T14:12:01.563Z,21.05
2022-08-28T14:13:03.728Z,20.95
2022-08-28T14:14:06.329Z,25.90
2022-08-28T14:15:08.787Z,31.00
2022-08-28T14:16:13.083Z,28.85
2022-08-28T14:17:17.852Z,29.75
2022-08-28T14:18:20.522Z,35.35
2022-08-28T14:19:22.894Z,33.67
2022-08-28T14:20:25.175Z,33.45
2022-08-28T14:21:27.321Z,45.00
2022-08-28T14:22:37.009Z,36.45
2022-08-28T14:23:41.715Z,40.47
2022-08-28T14:24:44.060Z,39.40
2022-08-28T14:25:47.517Z,36.47
2022-08-28T14:26:50.296Z,44.33
2022-08-28T14:27:52.547Z,48.10
2022-08-28T14:29:03.323Z,46.67
2022-08-28T14:30:08.742Z,49.53
2022-08-28T14:31:14.829Z,49.15
2022-08-28T14:32:17.303Z,50.53
2022-08-28T14:33:25.617Z,44.42
2022-08-28T14:34:28.651Z,47.72
2022-08-28T14:35:31.400Z,54.75
2022-08-28T14:36:34.188Z,53.70